Pagrindinis puslapis
METAR-TAF:

METAR-TAF

Oro uostai :

Kalmaras, Švedija

platuma: 56-44N, ilguma: 016-18E, Aukštis: 16 m

Dabartinis oras

Ataskaita buvo paskelbta 20 minutes, ne 13:20 UTC
Vėjas 8 kt iš Pietų
Temperatūra 6°C
Drėgmė 87%
Slėgis 1004 hPa
Matomumas 10 km arba daugiau
Mažai debesys ne aukštis 1500 ft
Su prošvaistėmis ne aukštis 1800 ft

METAR: ESMQ 161320Z 19008KT 9999 FEW015 BKN018 06/04 Q1004

Laikas: 14:40 (13:40 UTC)

Prognozė

Ataskaita buvo paskelbta 2 valandos ir 10 minutes, ne 11:30 UTC
Prognozė galioja nuo 16 metu 12 UTC su 16 metu 21 UTC
Vėjas 9 kt iš Pietvakarių
Matomumas 10 km arba daugiau
Išsisklaidę debesys ne aukštis 2000 ft
Tikimybė 40%
nuo 16 metu 12 UTC su 16 metu 13 UTC
Su prošvaistėmis ne aukštis 1200 ft
Laikinai
nuo 16 metu 17 UTC su 16 metu 21 UTC
Su prošvaistėmis ne aukštis 1200 ft

TAF: ESMQ 161130Z 1612/1621 22009KT 9999 SCT020 PROB40 1612/1613 BKN012 TEMPO 1617/1621 BKN012

Orai ataskaitas ir orų prognozės (METAR, TAF).

turimą stotys yra geltonos ir raudonos taškus žemėlapyje.

Perkelti pele per norėdami pamatyti stoties vardą.

Tada spustelėkite, norėdami matyti oro stebėjimo ir prognozės.

Norėdami pakeisti žemėlapį: spustelėkite ant žalios mygtukų su juodo kryžiaus žemyn,; žalią mygtuką su brūkšneliu, jei norite nutolinti; arba žalių rodyklių gretimoms žemėlapius.


METAR-TAF: